KOGA/OGA METAR and TAF weather

Enter ICAO airport designator
Station Type Date Time Source
KOGA METAR 2021/09/24 06:15 UTC NOAA

KOGA 240615Z AUTO 32004KT 10SM CLR 15/04 A3003 RMK AO2 T01450039


Station Type Date Time Source
KOGA Decoded METAR 2021/09/24 06:15 UTC NOAA

Ogallala, Searle Field Airport, NE, United States (KOGA) 41-07-11N 101-46-08W
Sep 24, 2021 - 02:15 AM EDT / 2021.09.24 0615 UTC
Wind: from the NW (320 degrees) at 5 MPH (4 KT):0
Visibility: 10 mile(s):0
Sky conditions: clear
Temperature: 58.1 F (14.5 C)
Dew Point: 39.0 F (3.9 C)
Relative Humidity: 48%
Pressure (altimeter): 30.03 in. Hg (1016 hPa)
ob: KOGA 240615Z AUTO 32004KT 10SM CLR 15/04 A3003 RMK AO2 T01450039
cycle: 6

Station Type Date Time Source
KOGA TAF UTC NOAA

Error!

Example: see airport list